Time;durP1;ratioP1;P1;durP2;ratioP2;P2;SDS_P1;SDS_P2;PMS_P1;PMS_P2;Temp;Humidity;BMP_temperature;BMP_pressure;BME280_temperature;BME280_humidity;BME280_pressure;Samples;Min_cycle;Max_cycle;Signal;HPM_P1;HPM_P2
2022/08/26 00:01:23;;;;;;;;;;;23.80;59.00;;;;;;5070226;28;20450;-81
2022/08/26 00:03:55;;;;;;;;;;;23.90;58.60;;;;;;5068522;28;19951;-87
2022/08/26 00:06:23;;;;;;;;;;;23.90;58.40;;;;;;5068119;28;20311;-82
2022/08/26 00:08:50;;;;;;;;;;;23.90;58.10;;;;;;5073999;28;19924;-83
2022/08/26 00:11:17;;;;;;;;;;;23.90;58.00;;;;;;5057678;28;19956;-80
2022/08/26 00:13:53;;;;;;;;;;;24.00;58.00;;;;;;5066154;28;19924;-84
2022/08/26 00:16:20;;;;;;;;;;;24.00;58.10;;;;;;5082012;28;19974;-84
2022/08/26 00:18:47;;;;;;;;;;;24.00;58.00;;;;;;5057565;28;19931;-80
2022/08/26 00:21:15;;;;;;;;;;;24.00;58.10;;;;;;5064432;28;19967;-80
2022/08/26 00:23:43;;;;;;;;;;;24.00;58.10;;;;;;5057750;28;19943;-80
2022/08/26 00:26:09;;;;;;;;;;;24.00;57.70;;;;;;5068950;28;20403;-81
2022/08/26 00:28:36;;;;;;;;;;;24.00;57.60;;;;;;5072580;28;19932;-84
2022/08/26 00:31:05;;;;;;;;;;;24.00;57.40;;;;;;5045344;28;19944;-87
2022/08/26 00:33:32;;;;;;;;;;;24.00;57.50;;;;;;5057846;28;20372;-88
2022/08/26 00:36:00;;;;;;;;;;;24.00;57.30;;;;;;5075880;28;19977;-79
2022/08/26 00:38:26;;;;;;;;;;;24.00;58.30;;;;;;5078151;28;19925;-78
2022/08/26 00:40:56;;;;;;;;;;;24.00;57.10;;;;;;5054928;28;20285;-87
2022/08/26 00:43:23;;;;;;;;;;;24.00;56.90;;;;;;5078340;28;19990;-87
2022/08/26 00:45:53;;;;;;;;;;;24.00;57.00;;;;;;5071780;28;19968;-82
2022/08/26 00:48:21;;;;;;;;;;;24.00;57.00;;;;;;5051636;28;20384;-78
2022/08/26 00:50:53;;;;;;;;;;;24.00;57.20;;;;;;5055926;28;19967;-84
2022/08/26 00:53:22;;;;;;;;;;;23.90;57.10;;;;;;5054816;28;19974;-84
2022/08/26 00:55:58;;;;;;;;;;;23.90;57.30;;;;;;5060933;28;19986;-80
2022/08/26 00:58:26;;;;;;;;;;;23.90;57.50;;;;;;5057307;28;20006;-79
2022/08/26 01:00:53;;;;;;;;;;;23.80;57.90;;;;;;5069889;28;19962;-81
2022/08/26 01:03:22;;;;;;;;;;;23.80;58.10;;;;;;5079375;28;19925;-84
2022/08/26 01:05:51;;;;;;;;;;;23.70;58.40;;;;;;5067126;28;19934;-81
2022/08/26 01:08:20;;;;;;;;;;;23.60;58.60;;;;;;5072332;28;19971;-86
2022/08/26 01:10:50;;;;;;;;;;;23.60;58.90;;;;;;5054753;28;19976;-81
2022/08/26 01:13:20;;;;;;;;;;;23.60;58.50;;;;;;5071475;28;20380;-79
2022/08/26 01:15:53;;;;;;;;;;;23.50;58.40;;;;;;5069651;28;19932;-86
2022/08/26 01:18:20;;;;;;;;;;;23.60;58.30;;;;;;5069907;28;20346;-82
2022/08/26 01:20:54;;;;;;;;;;;23.60;58.10;;;;;;5055406;28;19970;-81
2022/08/26 01:23:26;;;;;;;;;;;23.60;57.80;;;;;;5077734;28;19995;-78
2022/08/26 01:25:56;;;;;;;;;;;23.60;57.90;;;;;;5057916;28;19967;-84
2022/08/26 01:28:25;;;;;;;;;;;23.60;57.90;;;;;;5050923;28;19931;-83
2022/08/26 01:30:53;;;;;;;;;;;23.60;58.20;;;;;;5068101;28;19974;-84
2022/08/26 01:33:25;;;;;;;;;;;23.50;58.00;;;;;;5067604;28;19924;-84
2022/08/26 01:35:52;;;;;;;;;;;23.50;58.20;;;;;;5056273;28;19932;-84
2022/08/26 01:38:19;;;;;;;;;;;23.50;58.20;;;;;;5069289;28;19924;-84
2022/08/26 01:40:49;;;;;;;;;;;23.50;58.40;;;;;;5050084;28;20388;-79
2022/08/26 01:43:18;;;;;;;;;;;23.40;58.40;;;;;;5068082;28;19924;-86
2022/08/26 01:45:47;;;;;;;;;;;23.40;58.50;;;;;;5053671;28;19947;-82
2022/08/26 01:48:17;;;;;;;;;;;23.40;58.70;;;;;;5064911;28;19928;-87
2022/08/26 01:50:44;;;;;;;;;;;23.40;58.50;;;;;;5064591;28;19970;-79
2022/08/26 01:53:13;;;;;;;;;;;23.40;59.40;;;;;;5058111;28;20365;-86
2022/08/26 01:55:41;;;;;;;;;;;23.40;58.50;;;;;;5068343;28;19928;-83
2022/08/26 01:58:12;;;;;;;;;;;23.40;58.60;;;;;;5064554;28;19928;-83
2022/08/26 02:03:53;;;;;;;;;;;23.40;58.80;;;;;;5078214;28;19924;-87
2022/08/26 02:06:20;;;;;;;;;;;23.40;58.80;;;;;;5055595;28;19956;-86
2022/08/26 02:08:49;;;;;;;;;;;23.40;58.70;;;;;;5076122;28;20388;-87
2022/08/26 02:11:16;;;;;;;;;;;23.40;58.70;;;;;;5057968;28;19925;-84
2022/08/26 02:13:45;;;;;;;;;;;23.40;58.70;;;;;;5074093;28;19924;-87
2022/08/26 02:16:14;;;;;;;;;;;23.40;58.60;;;;;;5057190;28;20321;-79
2022/08/26 02:18:42;;;;;;;;;;;23.40;58.40;;;;;;5062636;28;19928;-83
2022/08/26 02:21:12;;;;;;;;;;;23.40;58.40;;;;;;5067937;28;19928;-82
2022/08/26 02:23:39;;;;;;;;;;;23.40;58.60;;;;;;5051481;28;19924;-79
2022/08/26 02:26:08;;;;;;;;;;;23.40;58.20;;;;;;5061905;28;19978;-87
2022/08/26 02:28:37;;;;;;;;;;;23.40;58.10;;;;;;5049382;28;20452;-82
2022/08/26 02:31:05;;;;;;;;;;;23.40;58.00;;;;;;5054503;28;19974;-84
2022/08/26 02:33:33;;;;;;;;;;;23.40;57.90;;;;;;5055050;28;20328;-86
2022/08/26 02:36:01;;;;;;;;;;;23.40;57.80;;;;;;5046430;28;20447;-86
2022/08/26 02:38:29;;;;;;;;;;;23.40;57.90;;;;;;5080198;28;19953;-78
2022/08/26 02:40:56;;;;;;;;;;;23.40;58.20;;;;;;4967326;28;19973;-87
2022/08/26 02:43:23;;;;;;;;;;;23.30;58.00;;;;;;5047280;28;19928;-84
2022/08/26 02:45:58;;;;;;;;;;;23.40;58.10;;;;;;5068229;28;19928;-84
2022/08/26 02:48:28;;;;;;;;;;;23.30;58.10;;;;;;5087447;28;20396;-84
2022/08/26 02:50:56;;;;;;;;;;;23.30;58.00;;;;;;5054663;28;20273;-86
2022/08/26 02:53:23;;;;;;;;;;;23.30;58.30;;;;;;5076675;28;19935;-83
2022/08/26 02:55:51;;;;;;;;;;;23.30;58.00;;;;;;5054750;28;20385;-86
2022/08/26 02:58:18;;;;;;;;;;;23.30;58.00;;;;;;5074232;28;19928;-86
2022/08/26 03:00:46;;;;;;;;;;;23.30;58.20;;;;;;5074313;28;19974;-78
2022/08/26 03:03:19;;;;;;;;;;;23.20;58.20;;;;;;5069162;28;20039;-87
2022/08/26 03:05:49;;;;;;;;;;;23.20;58.40;;;;;;5063239;28;19931;-78
2022/08/26 03:08:16;;;;;;;;;;;23.10;58.40;;;;;;5053724;28;19972;-79
2022/08/26 03:10:43;;;;;;;;;;;23.10;58.40;;;;;;5070067;28;19932;-78
2022/08/26 03:13:09;;;;;;;;;;;23.10;58.60;;;;;;5079604;28;19924;-78
2022/08/26 03:15:36;;;;;;;;;;;23.10;58.60;;;;;;5066112;28;19971;-81
2022/08/26 03:18:04;;;;;;;;;;;23.10;58.60;;;;;;5056602;28;19932;-84
2022/08/26 03:20:31;;;;;;;;;;;23.00;58.60;;;;;;5062883;28;19929;-84
2022/08/26 03:22:58;;;;;;;;;;;23.00;58.30;;;;;;5072064;28;19924;-87
2022/08/26 03:25:25;;;;;;;;;;;23.00;58.30;;;;;;5058203;28;19928;-87
2022/08/26 03:27:52;;;;;;;;;;;23.00;58.40;;;;;;5066587;28;19979;-87
2022/08/26 03:33:11;;;;;;;;;;;23.00;58.60;;;;;;5082749;28;19974;-87
2022/08/26 03:35:40;;;;;;;;;;;23.00;58.80;;;;;;5050266;28;20296;-79
2022/08/26 03:38:07;;;;;;;;;;;22.90;59.00;;;;;;5061262;28;19963;-84
2022/08/26 03:40:35;;;;;;;;;;;22.90;59.00;;;;;;5063056;28;19978;-81
2022/08/26 03:43:03;;;;;;;;;;;22.90;58.50;;;;;;5085015;28;19985;-84
2022/08/26 03:45:29;;;;;;;;;;;22.90;58.50;;;;;;5063363;28;20354;-84
2022/08/26 03:47:56;;;;;;;;;;;22.90;58.50;;;;;;5073283;28;19948;-80
2022/08/26 03:50:24;;;;;;;;;;;22.90;58.60;;;;;;5056154;28;19925;-83
2022/08/26 03:52:53;;;;;;;;;;;22.90;58.60;;;;;;5059801;28;19924;-79
2022/08/26 03:55:21;;;;;;;;;;;22.90;58.90;;;;;;5052901;28;20336;-84
2022/08/26 03:57:49;;;;;;;;;;;22.80;59.00;;;;;;5074825;28;19982;-84
2022/08/26 04:00:16;;;;;;;;;;;22.80;59.10;;;;;;5058874;28;19924;-81
2022/08/26 04:02:45;;;;;;;;;;;22.80;59.30;;;;;;5055568;28;20406;-82
2022/08/26 04:05:12;;;;;;;;;;;22.70;59.40;;;;;;5078244;28;19931;-88
2022/08/26 04:07:40;;;;;;;;;;;22.70;59.50;;;;;;5074372;28;19929;-81
2022/08/26 04:10:07;;;;;;;;;;;22.70;59.60;;;;;;5068982;28;19960;-84
2022/08/26 04:12:36;;;;;;;;;;;22.70;59.70;;;;;;5048958;28;19957;-85
2022/08/26 04:15:04;;;;;;;;;;;22.70;59.80;;;;;;5046266;28;20015;-84
2022/08/26 04:17:31;;;;;;;;;;;22.60;59.70;;;;;;5066903;28;20245;-81
2022/08/26 04:19:58;;;;;;;;;;;22.60;59.90;;;;;;5054684;28;19960;-81
2022/08/26 04:22:25;;;;;;;;;;;22.60;59.90;;;;;;5057192;28;19928;-86
2022/08/26 04:24:55;;;;;;;;;;;22.50;60.00;;;;;;5072660;28;19932;-80
2022/08/26 04:27:22;;;;;;;;;;;22.50;60.00;;;;;;5052296;28;20018;-84
2022/08/26 04:29:51;;;;;;;;;;;22.50;60.10;;;;;;5056967;28;20007;-84
2022/08/26 04:32:21;;;;;;;;;;;22.50;60.00;;;;;;5055477;28;19947;-86
2022/08/26 04:34:47;;;;;;;;;;;22.50;59.90;;;;;;5057000;28;19928;-81
2022/08/26 04:37:15;;;;;;;;;;;22.50;59.90;;;;;;5059514;28;19956;-87
2022/08/26 04:39:43;;;;;;;;;;;22.50;60.00;;;;;;5067141;28;19924;-87
2022/08/26 04:42:12;;;;;;;;;;;22.50;60.00;;;;;;5063319;28;19925;-87
2022/08/26 04:44:39;;;;;;;;;;;22.50;59.90;;;;;;5049697;28;19925;-81
2022/08/26 04:47:06;;;;;;;;;;;22.50;59.80;;;;;;5052296;28;19985;-80
2022/08/26 04:49:34;;;;;;;;;;;22.60;59.70;;;;;;5062517;28;19939;-84
2022/08/26 04:52:02;;;;;;;;;;;22.50;59.70;;;;;;5055455;28;19925;-83
2022/08/26 04:54:30;;;;;;;;;;;22.60;59.90;;;;;;5071628;28;19993;-83
2022/08/26 04:56:58;;;;;;;;;;;22.60;59.90;;;;;;5065417;28;19974;-83
2022/08/26 04:59:24;;;;;;;;;;;22.60;59.40;;;;;;5060782;28;20442;-81
2022/08/26 05:01:52;;;;;;;;;;;22.60;59.20;;;;;;5072215;28;20385;-78
2022/08/26 05:04:19;;;;;;;;;;;22.60;59.00;;;;;;5009267;28;19936;-83
2022/08/26 05:06:48;;;;;;;;;;;22.70;59.20;;;;;;5044291;28;19925;-87
2022/08/26 05:09:15;;;;;;;;;;;22.70;58.90;;;;;;5056074;28;19971;-80
2022/08/26 05:11:41;;;;;;;;;;;22.70;58.90;;;;;;5056958;28;19951;-80
2022/08/26 05:14:08;;;;;;;;;;;22.70;58.90;;;;;;5060324;28;19977;-79
2022/08/26 05:16:36;;;;;;;;;;;22.70;58.80;;;;;;5063346;28;19924;-83
2022/08/26 05:19:06;;;;;;;;;;;22.70;59.00;;;;;;5056619;28;19925;-86
2022/08/26 05:21:34;;;;;;;;;;;22.70;58.90;;;;;;5068729;28;19974;-81
2022/08/26 05:24:01;;;;;;;;;;;22.70;59.10;;;;;;5071322;28;19975;-87
2022/08/26 05:26:29;;;;;;;;;;;22.70;59.10;;;;;;5065142;28;19928;-81
2022/08/26 05:28:56;;;;;;;;;;;22.70;59.10;;;;;;5062120;28;20379;-87
2022/08/26 05:31:26;;;;;;;;;;;22.70;59.40;;;;;;5070679;28;19940;-88
2022/08/26 05:33:53;;;;;;;;;;;22.70;59.10;;;;;;5063135;28;19925;-87
2022/08/26 05:36:22;;;;;;;;;;;22.70;59.20;;;;;;5050922;28;20347;-81
2022/08/26 05:38:52;;;;;;;;;;;22.70;59.30;;;;;;5068190;28;19951;-84
2022/08/26 05:41:27;;;;;;;;;;;22.70;59.20;;;;;;5060187;28;19925;-84
2022/08/26 05:44:04;;;;;;;;;;;22.70;59.10;;;;;;5044400;28;19948;-80
2022/08/26 05:46:32;;;;;;;;;;;22.80;59.00;;;;;;5070947;28;19929;-84
2022/08/26 05:49:00;;;;;;;;;;;22.80;58.70;;;;;;5066446;28;19933;-81
2022/08/26 05:51:29;;;;;;;;;;;22.90;58.70;;;;;;5060773;28;19925;-79
2022/08/26 05:53:57;;;;;;;;;;;22.90;58.50;;;;;;5060098;28;19925;-84
2022/08/26 05:56:26;;;;;;;;;;;23.00;58.50;;;;;;5053048;28;20308;-87
2022/08/26 05:58:54;;;;;;;;;;;23.10;58.20;;;;;;5065127;28;19924;-78
2022/08/26 06:01:24;;;;;;;;;;;23.10;58.30;;;;;;5059936;28;19925;-86
2022/08/26 06:03:52;;;;;;;;;;;23.20;58.30;;;;;;5065102;28;19948;-81
2022/08/26 06:06:22;;;;;;;;;;;23.30;57.70;;;;;;5053370;28;20393;-81
2022/08/26 06:08:54;;;;;;;;;;;23.30;57.80;;;;;;5060450;28;19985;-87
2022/08/26 06:11:25;;;;;;;;;;;23.40;57.90;;;;;;5056130;28;19951;-88
2022/08/26 06:13:59;;;;;;;;;;;23.50;57.70;;;;;;5055231;28;19924;-83
2022/08/26 06:16:29;;;;;;;;;;;23.60;57.70;;;;;;5056979;28;19978;-84
2022/08/26 06:18:56;;;;;;;;;;;23.70;57.70;;;;;;5054918;28;19924;-84
2022/08/26 06:21:27;;;;;;;;;;;23.80;57.40;;;;;;5054409;28;19925;-81
2022/08/26 06:26:54;;;;;;;;;;;24.00;56.90;;;;;;5061520;28;20300;-84
2022/08/26 06:29:22;;;;;;;;;;;24.00;56.20;;;;;;5056421;28;19928;-81
2022/08/26 06:31:51;;;;;;;;;;;24.10;55.80;;;;;;5067874;28;19935;-87
2022/08/26 06:34:18;;;;;;;;;;;24.20;56.30;;;;;;5059733;28;19929;-81
2022/08/26 06:36:46;;;;;;;;;;;24.20;57.20;;;;;;5061173;28;19932;-81
2022/08/26 06:39:13;;;;;;;;;;;24.30;58.00;;;;;;5073083;28;20339;-88
2022/08/26 06:41:43;;;;;;;;;;;24.40;57.90;;;;;;5067102;28;19928;-85
2022/08/26 06:44:11;;;;;;;;;;;24.50;57.70;;;;;;5068911;28;19924;-81
2022/08/26 06:46:38;;;;;;;;;;;24.60;57.30;;;;;;5054552;28;20026;-79
2022/08/26 06:49:05;;;;;;;;;;;24.70;55.10;;;;;;5073975;28;20299;-86
2022/08/26 06:51:35;;;;;;;;;;;24.80;54.30;;;;;;5063209;28;20350;-85
2022/08/26 06:54:03;;;;;;;;;;;24.90;54.20;;;;;;5051677;28;20265;-89
2022/08/26 06:56:38;;;;;;;;;;;24.90;53.90;;;;;;5066988;28;20498;-79
2022/08/26 06:59:05;;;;;;;;;;;25.00;54.20;;;;;;5051015;28;19928;-87
2022/08/26 07:01:35;;;;;;;;;;;25.00;54.00;;;;;;5055185;28;20446;-81
2022/08/26 07:04:04;;;;;;;;;;;25.10;54.00;;;;;;5062907;28;20384;-80
2022/08/26 07:06:37;;;;;;;;;;;25.20;53.50;;;;;;5071128;28;20414;-81
2022/08/26 07:09:06;;;;;;;;;;;25.20;52.60;;;;;;5084673;28;20449;-80
2022/08/26 07:11:36;;;;;;;;;;;25.30;53.00;;;;;;5071931;28;19929;-81
2022/08/26 07:14:04;;;;;;;;;;;25.30;53.10;;;;;;5054614;28;19928;-84
2022/08/26 07:16:32;;;;;;;;;;;25.40;53.10;;;;;;5050090;28;19931;-81
2022/08/26 07:19:02;;;;;;;;;;;25.50;53.00;;;;;;5063337;28;19931;-85
2022/08/26 07:21:38;;;;;;;;;;;25.50;53.20;;;;;;5054369;28;19966;-81
2022/08/26 07:24:06;;;;;;;;;;;25.70;53.20;;;;;;5053586;28;19932;-84
2022/08/26 07:26:32;;;;;;;;;;;25.80;52.10;;;;;;5074657;28;19931;-83
2022/08/26 07:28:59;;;;;;;;;;;25.90;51.70;;;;;;5057173;28;20007;-85
2022/08/26 07:31:28;;;;;;;;;;;25.90;51.60;;;;;;5078047;28;19974;-86
2022/08/26 07:33:56;;;;;;;;;;;26.00;51.60;;;;;;5056635;28;19990;-78
2022/08/26 07:36:23;;;;;;;;;;;26.10;51.90;;;;;;5085001;28;20376;-81
2022/08/26 07:38:50;;;;;;;;;;;26.20;51.60;;;;;;5052130;28;19982;-84
2022/08/26 07:41:18;;;;;;;;;;;26.30;51.70;;;;;;5038041;28;20351;-82
2022/08/26 07:43:45;;;;;;;;;;;26.40;51.60;;;;;;5066526;28;20019;-87
2022/08/26 07:46:17;;;;;;;;;;;26.50;51.40;;;;;;5062316;28;19965;-84
2022/08/26 07:48:47;;;;;;;;;;;26.60;51.10;;;;;;5071790;28;20372;-82
2022/08/26 07:51:15;;;;;;;;;;;26.60;51.00;;;;;;5055803;28;19981;-86
2022/08/26 07:53:42;;;;;;;;;;;26.70;51.00;;;;;;5065049;28;19978;-85
2022/08/26 07:56:13;;;;;;;;;;;26.80;50.70;;;;;;5054927;28;20005;-87
2022/08/26 07:58:40;;;;;;;;;;;26.90;50.60;;;;;;5067264;28;20449;-86
2022/08/26 08:01:08;;;;;;;;;;;27.00;50.20;;;;;;5064202;28;19940;-87
2022/08/26 08:03:35;;;;;;;;;;;27.10;50.30;;;;;;5075548;28;19929;-80
2022/08/26 08:06:01;;;;;;;;;;;27.10;50.40;;;;;;5062615;28;19924;-79
2022/08/26 08:08:28;;;;;;;;;;;27.20;50.30;;;;;;5055607;28;20329;-87
2022/08/26 08:10:57;;;;;;;;;;;27.30;50.30;;;;;;5064767;28;23048;-79
2022/08/26 08:13:25;;;;;;;;;;;27.40;50.40;;;;;;5066991;28;19977;-87
2022/08/26 08:15:52;;;;;;;;;;;27.40;50.30;;;;;;5056975;28;19924;-81
2022/08/26 08:18:19;;;;;;;;;;;27.50;50.20;;;;;;5066677;28;19931;-85
2022/08/26 08:20:46;;;;;;;;;;;27.50;50.10;;;;;;5060684;28;19980;-85
2022/08/26 08:23:31;;;;;;;;;;;27.50;49.80;;;;;;5068354;28;19925;-82
2022/08/26 08:26:05;;;;;;;;;;;27.60;49.70;;;;;;5070805;28;19994;-85
2022/08/26 08:28:34;;;;;;;;;;;27.70;49.60;;;;;;5060873;28;20007;-81
2022/08/26 08:31:01;;;;;;;;;;;27.80;49.40;;;;;;5071204;28;20427;-86
2022/08/26 08:33:32;;;;;;;;;;;28.00;48.80;;;;;;5068948;28;20390;-86
2022/08/26 08:35:59;;;;;;;;;;;28.00;49.00;;;;;;5067717;28;20391;-86
2022/08/26 08:38:26;;;;;;;;;;;28.00;48.30;;;;;;5068191;28;20396;-81
2022/08/26 08:40:53;;;;;;;;;;;28.00;48.40;;;;;;5055280;28;19924;-86
2022/08/26 08:43:20;;;;;;;;;;;28.00;48.00;;;;;;5074195;28;19955;-86
2022/08/26 08:45:48;;;;;;;;;;;27.90;47.60;;;;;;5060994;28;19924;-85
2022/08/26 08:48:20;;;;;;;;;;;27.90;48.00;;;;;;5079564;28;19928;-85
2022/08/26 08:50:55;;;;;;;;;;;27.80;47.70;;;;;;5074094;28;19924;-85
2022/08/26 08:53:52;;;;;;;;;;;27.70;47.90;;;;;;5066001;28;19932;-85
2022/08/26 08:56:22;;;;;;;;;;;27.70;48.00;;;;;;5031443;28;19931;-81
2022/08/26 08:59:03;;;;;;;;;;;27.70;47.60;;;;;;5072718;28;19931;-85
2022/08/26 09:01:31;;;;;;;;;;;27.70;47.80;;;;;;5049266;28;19928;-79
2022/08/26 09:04:03;;;;;;;;;;;27.60;48.10;;;;;;5070916;28;20007;-78
2022/08/26 09:06:30;;;;;;;;;;;27.50;48.20;;;;;;5075891;28;19960;-85
2022/08/26 09:08:58;;;;;;;;;;;27.40;48.20;;;;;;5086617;28;19973;-85
2022/08/26 09:11:26;;;;;;;;;;;27.30;49.40;;;;;;5086138;28;20392;-85
2022/08/26 09:13:53;;;;;;;;;;;27.20;50.00;;;;;;5067776;28;19993;-87
2022/08/26 09:16:33;;;;;;;;;;;27.10;51.00;;;;;;5080462;28;19928;-80
2022/08/26 09:19:17;;;;;;;;;;;27.00;51.40;;;;;;5056019;28;19951;-79
2022/08/26 09:21:45;;;;;;;;;;;26.80;50.80;;;;;;5059034;28;19935;-79
2022/08/26 09:24:18;;;;;;;;;;;26.70;50.10;;;;;;5067625;28;20277;-87
2022/08/26 09:26:48;;;;;;;;;;;26.50;50.40;;;;;;5071686;28;19928;-80
2022/08/26 09:29:20;;;;;;;;;;;26.50;51.10;;;;;;5066539;28;19932;-79
2022/08/26 09:31:46;;;;;;;;;;;26.40;50.00;;;;;;5085640;28;20373;-81
2022/08/26 09:34:13;;;;;;;;;;;26.30;49.80;;;;;;5075506;28;20031;-86
2022/08/26 09:36:56;;;;;;;;;;;26.20;50.00;;;;;;5070079;28;20423;-84
2022/08/26 09:39:26;;;;;;;;;;;26.10;50.30;;;;;;5051543;28;20339;-87
2022/08/26 09:42:19;;;;;;;;;;;25.90;50.40;;;;;;5058871;28;19924;-84
2022/08/26 09:45:04;;;;;;;;;;;25.80;50.50;;;;;;5052229;28;19958;-85
2022/08/26 09:47:35;;;;;;;;;;;25.60;50.90;;;;;;5053910;28;19924;-85
2022/08/26 09:50:04;;;;;;;;;;;25.50;51.40;;;;;;5067916;28;19925;-81
2022/08/26 09:52:35;;;;;;;;;;;25.50;51.70;;;;;;5077701;28;19932;-85
2022/08/26 09:55:10;;;;;;;;;;;25.40;52.10;;;;;;5059138;28;19971;-85
2022/08/26 09:57:57;;;;;;;;;;;25.30;52.40;;;;;;5072280;28;19958;-85
2022/08/26 10:00:33;;;;;;;;;;;25.20;53.20;;;;;;5047093;28;19928;-81
2022/08/26 10:03:22;;;;;;;;;;;25.10;53.80;;;;;;5064127;28;19979;-86
2022/08/26 10:06:00;;;;;;;;;;;25.00;53.70;;;;;;5069651;28;19984;-79
2022/08/26 10:08:29;;;;;;;;;;;24.90;54.40;;;;;;5057323;28;19925;-87
2022/08/26 10:10:57;;;;;;;;;;;24.90;54.10;;;;;;5058644;28;19939;-85
2022/08/26 10:13:27;;;;;;;;;;;24.80;55.00;;;;;;5052728;28;19932;-88
2022/08/26 10:16:00;;;;;;;;;;;24.80;55.80;;;;;;5049033;28;19975;-87
2022/08/26 10:18:49;;;;;;;;;;;24.70;56.20;;;;;;5045686;28;19978;-86
2022/08/26 10:21:20;;;;;;;;;;;24.60;56.80;;;;;;5044037;28;19925;-81
2022/08/26 10:23:49;;;;;;;;;;;24.50;57.50;;;;;;5042053;28;20022;-87
2022/08/26 10:26:15;;;;;;;;;;;24.40;57.60;;;;;;5047745;28;19925;-82
2022/08/26 10:28:53;;;;;;;;;;;24.40;57.70;;;;;;5056116;28;19932;-85
2022/08/26 10:31:35;;;;;;;;;;;24.40;57.90;;;;;;5040787;28;20011;-85
2022/08/26 10:34:07;;;;;;;;;;;24.40;57.90;;;;;;5064324;28;20023;-82
2022/08/26 10:36:50;;;;;;;;;;;24.40;57.20;;;;;;5060813;28;19929;-83
2022/08/26 10:39:52;;;;;;;;;;;24.50;57.10;;;;;;5048846;28;20024;-81
2022/08/26 10:42:37;;;;;;;;;;;24.50;57.10;;;;;;5056417;28;19934;-82
2022/08/26 10:45:06;;;;;;;;;;;24.60;56.30;;;;;;5049267;28;19925;-85
2022/08/26 10:47:43;;;;;;;;;;;24.60;56.90;;;;;;5067683;28;20370;-87
2022/08/26 10:50:10;;;;;;;;;;;24.70;56.80;;;;;;5062664;28;19928;-86
2022/08/26 10:52:41;;;;;;;;;;;24.80;57.00;;;;;;5051989;28;19970;-86
2022/08/26 10:55:15;;;;;;;;;;;24.90;57.20;;;;;;5059441;28;19937;-85
2022/08/26 10:57:48;;;;;;;;;;;24.90;56.70;;;;;;5067057;28;19924;-84
2022/08/26 11:03:12;;;;;;;;;;;25.20;57.10;;;;;;5078993;28;19938;-82
2022/08/26 11:06:06;;;;;;;;;;;25.50;54.40;;;;;;5066691;28;19924;-86
2022/08/26 11:08:33;;;;;;;;;;;25.60;53.70;;;;;;5053651;28;20347;-82
2022/08/26 11:11:01;;;;;;;;;;;25.70;53.80;;;;;;5068182;28;19958;-85
2022/08/26 11:13:47;;;;;;;;;;;25.80;53.70;;;;;;5057082;28;19978;-87
2022/08/26 11:16:30;;;;;;;;;;;25.80;54.10;;;;;;5091090;28;19936;-87
2022/08/26 11:18:57;;;;;;;;;;;26.00;53.50;;;;;;5059092;28;19928;-87
2022/08/26 11:21:42;;;;;;;;;;;26.00;53.10;;;;;;5056517;28;19932;-88
2022/08/26 11:24:28;;;;;;;;;;;26.10;52.80;;;;;;5050463;28;19929;-86
2022/08/26 11:26:57;;;;;;;;;;;26.20;52.70;;;;;;5062681;28;19960;-85
2022/08/26 11:29:59;;;;;;;;;;;26.20;52.80;;;;;;5061409;28;19978;-85
2022/08/26 11:32:32;;;;;;;;;;;26.20;52.30;;;;;;4956954;28;19930;-85
2022/08/26 11:35:12;;;;;;;;;;;26.20;53.20;;;;;;5037892;28;19975;-88
2022/08/26 11:37:51;;;;;;;;;;;26.20;52.60;;;;;;5061240;28;19931;-81
2022/08/26 11:40:20;;;;;;;;;;;26.20;53.00;;;;;;5052471;28;19970;-83
2022/08/26 11:42:51;;;;;;;;;;;26.10;52.90;;;;;;5071633;28;20424;-84
2022/08/26 11:45:26;;;;;;;;;;;26.00;52.90;;;;;;5056515;28;19928;-86
2022/08/26 11:47:55;;;;;;;;;;;26.10;52.90;;;;;;5045745;28;20281;-82
2022/08/26 11:50:27;;;;;;;;;;;26.30;51.40;;;;;;5063564;28;19924;-86
2022/08/26 11:53:00;;;;;;;;;;;26.50;51.00;;;;;;5045414;28;20384;-81
2022/08/26 11:55:29;;;;;;;;;;;26.90;50.50;;;;;;5046776;28;19928;-84
2022/08/26 11:57:58;;;;;;;;;;;27.30;49.60;;;;;;5068713;28;19931;-82
2022/08/26 12:00:48;;;;;;;;;;;27.60;48.60;;;;;;5054486;28;19924;-82
2022/08/26 12:03:23;;;;;;;;;;;27.70;47.30;;;;;;5064614;28;19932;-86
2022/08/26 12:05:51;;;;;;;;;;;27.50;46.90;;;;;;5053224;28;19928;-87
2022/08/26 12:08:22;;;;;;;;;;;27.40;47.40;;;;;;5080659;28;20031;-86
2022/08/26 12:11:02;;;;;;;;;;;27.30;48.10;;;;;;5059621;28;19947;-87
2022/08/26 12:13:29;;;;;;;;;;;27.20;47.80;;;;;;5062446;28;20390;-85
2022/08/26 12:15:58;;;;;;;;;;;27.40;47.50;;;;;;5069917;28;19951;-82
2022/08/26 12:18:28;;;;;;;;;;;27.40;46.00;;;;;;5050307;28;19932;-83
2022/08/26 12:20:57;;;;;;;;;;;27.50;46.60;;;;;;5056198;28;19929;-87
2022/08/26 12:23:27;;;;;;;;;;;27.60;46.20;;;;;;5068873;28;20464;-87
2022/08/26 12:26:02;;;;;;;;;;;27.70;46.00;;;;;;5065512;28;19924;-87
2022/08/26 12:28:29;;;;;;;;;;;27.80;46.00;;;;;;5062299;28;19932;-82
2022/08/26 12:31:00;;;;;;;;;;;28.00;45.70;;;;;;5065233;28;19935;-84
2022/08/26 12:33:27;;;;;;;;;;;28.10;44.30;;;;;;5046695;28;19960;-83
2022/08/26 12:35:54;;;;;;;;;;;28.10;43.40;;;;;;5047224;28;19925;-84
2022/08/26 12:38:23;;;;;;;;;;;28.00;44.10;;;;;;5065598;28;19924;-88
2022/08/26 12:40:50;;;;;;;;;;;27.90;43.80;;;;;;5065495;28;20640;-82
2022/08/26 12:43:37;;;;;;;;;;;27.80;43.90;;;;;;5047040;28;19970;-84
2022/08/26 12:46:05;;;;;;;;;;;27.60;44.10;;;;;;5045118;28;19926;-84
2022/08/26 12:48:34;;;;;;;;;;;27.40;43.50;;;;;;5052601;28;20369;-87
2022/08/26 12:51:02;;;;;;;;;;;27.30;43.80;;;;;;5051138;28;19932;-85
2022/08/26 12:53:31;;;;;;;;;;;27.20;44.30;;;;;;5052586;28;19999;-87
2022/08/26 12:55:59;;;;;;;;;;;27.10;44.90;;;;;;5077102;28;19925;-87
2022/08/26 12:58:36;;;;;;;;;;;27.00;45.00;;;;;;5055521;28;19947;-82
2022/08/26 13:01:02;;;;;;;;;;;26.90;44.80;;;;;;5062208;28;20446;-84
2022/08/26 13:03:42;;;;;;;;;;;26.80;44.90;;;;;;5063933;28;20372;-87
2022/08/26 13:06:21;;;;;;;;;;;26.70;45.30;;;;;;5063323;28;19924;-86
2022/08/26 13:08:58;;;;;;;;;;;26.60;46.60;;;;;;5056984;28;19924;-87
2022/08/26 13:11:37;;;;;;;;;;;26.50;46.50;;;;;;5048552;28;19928;-84
2022/08/26 13:14:06;;;;;;;;;;;26.40;47.10;;;;;;5064297;28;19925;-89
2022/08/26 13:16:35;;;;;;;;;;;26.30;46.60;;;;;;5066196;28;19933;-82
2022/08/26 13:19:06;;;;;;;;;;;26.20;47.50;;;;;;5073608;28;19931;-89
2022/08/26 13:21:39;;;;;;;;;;;26.20;47.80;;;;;;5071179;28;19924;-82
2022/08/26 13:24:10;;;;;;;;;;;26.10;48.00;;;;;;5071253;28;19925;-88
2022/08/26 13:26:38;;;;;;;;;;;26.00;48.00;;;;;;5061146;28;20330;-84
2022/08/26 13:29:05;;;;;;;;;;;25.90;48.70;;;;;;5086140;28;19985;-89
2022/08/26 13:31:37;;;;;;;;;;;25.90;48.90;;;;;;5063927;28;19932;-90
2022/08/26 13:34:04;;;;;;;;;;;25.90;49.10;;;;;;5063320;28;20018;-89
2022/08/26 13:36:31;;;;;;;;;;;25.80;49.80;;;;;;5063426;28;19947;-87
2022/08/26 13:38:58;;;;;;;;;;;25.70;50.40;;;;;;5055614;28;19924;-84
2022/08/26 13:41:25;;;;;;;;;;;25.60;50.60;;;;;;5075757;28;20007;-87
2022/08/26 13:43:55;;;;;;;;;;;25.60;51.10;;;;;;5050189;28;20015;-85
2022/08/26 13:46:27;;;;;;;;;;;25.60;50.40;;;;;;5042967;28;19939;-89
2022/08/26 13:48:55;;;;;;;;;;;25.50;50.70;;;;;;5049914;28;19925;-84
2022/08/26 13:51:22;;;;;;;;;;;25.50;50.90;;;;;;5054710;28;19924;-89
2022/08/26 13:53:50;;;;;;;;;;;25.50;51.20;;;;;;5056815;28;19924;-88
2022/08/26 13:56:17;;;;;;;;;;;25.50;50.50;;;;;;5049212;28;20351;-89
2022/08/26 13:58:44;;;;;;;;;;;25.40;50.60;;;;;;5040836;28;20389;-87
2022/08/26 14:01:11;;;;;;;;;;;25.40;50.40;;;;;;5069456;28;19924;-87
2022/08/26 14:03:38;;;;;;;;;;;25.30;50.90;;;;;;5066293;28;19928;-88
2022/08/26 14:06:05;;;;;;;;;;;25.40;49.60;;;;;;5055759;28;19932;-84
2022/08/26 14:08:32;;;;;;;;;;;25.50;49.60;;;;;;5041824;28;19925;-84
2022/08/26 14:10:59;;;;;;;;;;;25.50;50.10;;;;;;5042751;28;19924;-83
2022/08/26 14:13:26;;;;;;;;;;;25.50;50.10;;;;;;5055160;28;19977;-88
2022/08/26 14:15:52;;;;;;;;;;;25.60;49.50;;;;;;5071220;28;19954;-85
2022/08/26 14:18:26;;;;;;;;;;;25.60;49.50;;;;;;5070680;28;19925;-86
2022/08/26 14:20:54;;;;;;;;;;;25.60;49.80;;;;;;5062674;28;19928;-84
2022/08/26 14:23:21;;;;;;;;;;;25.70;50.30;;;;;;5059109;28;19928;-89
2022/08/26 14:25:48;;;;;;;;;;;25.70;50.30;;;;;;5065800;28;19924;-88
2022/08/26 14:28:15;;;;;;;;;;;25.80;49.90;;;;;;5073072;28;19999;-88
2022/08/26 14:30:45;;;;;;;;;;;25.90;49.40;;;;;;5062807;28;19967;-83
2022/08/26 14:33:13;;;;;;;;;;;25.90;49.60;;;;;;5071396;28;20400;-88
2022/08/26 14:35:40;;;;;;;;;;;26.00;49.40;;;;;;5068458;28;20384;-84
2022/08/26 14:38:15;;;;;;;;;;;26.10;49.20;;;;;;5058258;28;20022;-85
2022/08/26 14:40:43;;;;;;;;;;;26.30;48.70;;;;;;5056356;28;19925;-88
2022/08/26 14:43:13;;;;;;;;;;;26.60;47.90;;;;;;5079279;28;19928;-84
2022/08/26 14:45:42;;;;;;;;;;;26.90;47.20;;;;;;5056778;28;19933;-90